Airfield :
LOGIN :

Register | Disclaimer

   EN    FR    IT 

 










Legend :    VFR   Marginal VFR   IFR   Intensive IFR   Very Intensive IFR
Visi :
Ceiling :
>= 8 km
>= 3000ft
5 to 8 km
1000 to 3000 ft
1500m to 5 km
500 to 1000 ft
800 to 1500m
200 to 500 ft
< 800m
< 200 ft
Symbols :   Thunderstorms  Fog  Heavy snow  Heavy precipitations  Wind > 20 kt
SIGMETs :     Misc.  Thunderstorms  Icing  Turbulence  Mountain Waves  Volcanic Ashes







- Airport Elevation : 1367 ft
- IATA code : FDH


EDNY - Friedrichshafen

CURRENT METAR :
  • 221550Z VRB01KT 9999 BKN017 M01/M05 Q1005

EXPIRED METARs :
  • 221520Z VRB02KT 9999 SCT015 OVC017 M01/M04 Q1006
  • 221450Z VRB02KT 9999 OVC016 M01/M05 Q1006
  • 221420Z VRB02KT 9999 OVC015 M01/M04 Q1007
  • 221350Z VRB01KT 9999 OVC015 M01/M04 Q1007
  • 221320Z VRB02KT 9999 OVC015 M01/M04 Q1008

TAF TAF EDNY
Valid from the 22 at 12:00 until the 23 at 12:00 UTC


221100Z 2212/2312 VRB03KT 9999 BKN013
BECMG 2212/2215 BKN015
BECMG 2221/2223 3000 BR
TEMPO 2300/2308 BKN009
BECMG 2303/2305 03005KT
PROB30
TEMPO 2304/2307 1200 BCFG VV002
BECMG 2307/2309 8000
No reported NOTAMs for that airfield.



MET'MAP, your aeronautical weather chart ! - Copyright ORBIFLY December 2007 - Disclaimer

ORBIFLY MET'MAP TEAM :

Programming & Development : Alexandra Zaïnal
Concept & Development : Baudouin d'Aumeries
Co-Development & Prog : Marc-Olivier Méhu
Technical & hardware support : Manuel Goepfert

Contact : metmap@orbifly.com




SOURCES & CREDITS :

   NOAA